sensor_id;sensor_type;location;lat;lon;timestamp;P1;durP1;ratioP1;P2;durP2;ratioP2
70576;SDS011;58138;43.138;24.702;2024-03-06T00:02:06;50.00;;;29.13;;
70576;SDS011;58138;43.138;24.702;2024-03-06T00:04:32;60.28;;;29.15;;
70576;SDS011;58138;43.138;24.702;2024-03-06T00:06:58;53.55;;;28.75;;
70576;SDS011;58138;43.138;24.702;2024-03-06T00:09:25;57.28;;;29.63;;
70576;SDS011;58138;43.138;24.702;2024-03-06T00:11:53;58.00;;;30.52;;
70576;SDS011;58138;43.138;24.702;2024-03-06T00:14:19;62.42;;;30.30;;
70576;SDS011;58138;43.138;24.702;2024-03-06T00:16:46;57.03;;;29.52;;
70576;SDS011;58138;43.138;24.702;2024-03-06T00:19:13;53.92;;;30.38;;
70576;SDS011;58138;43.138;24.702;2024-03-06T00:21:38;56.00;;;29.45;;
70576;SDS011;58138;43.138;24.702;2024-03-06T00:24:04;58.28;;;29.65;;
70576;SDS011;58138;43.138;24.702;2024-03-06T00:26:30;53.15;;;28.98;;
70576;SDS011;58138;43.138;24.702;2024-03-06T00:28:56;54.55;;;29.38;;
70576;SDS011;58138;43.138;24.702;2024-03-06T00:31:21;54.28;;;29.85;;
70576;SDS011;58138;43.138;24.702;2024-03-06T00:33:47;56.33;;;28.83;;
70576;SDS011;58138;43.138;24.702;2024-03-06T00:36:12;55.08;;;29.55;;
70576;SDS011;58138;43.138;24.702;2024-03-06T00:38:38;52.67;;;29.13;;
70576;SDS011;58138;43.138;24.702;2024-03-06T00:41:04;55.95;;;29.98;;
70576;SDS011;58138;43.138;24.702;2024-03-06T00:43:29;56.20;;;29.92;;
70576;SDS011;58138;43.138;24.702;2024-03-06T00:45:54;51.25;;;29.25;;
70576;SDS011;58138;43.138;24.702;2024-03-06T00:48:21;57.20;;;30.75;;
70576;SDS011;58138;43.138;24.702;2024-03-06T00:50:46;59.85;;;31.50;;
70576;SDS011;58138;43.138;24.702;2024-03-06T00:53:12;58.10;;;30.48;;
70576;SDS011;58138;43.138;24.702;2024-03-06T00:55:37;55.55;;;30.48;;
70576;SDS011;58138;43.138;24.702;2024-03-06T00:58:03;55.67;;;30.05;;
70576;SDS011;58138;43.138;24.702;2024-03-06T01:00:31;59.03;;;30.75;;
70576;SDS011;58138;43.138;24.702;2024-03-06T01:02:57;60.75;;;31.55;;
70576;SDS011;58138;43.138;24.702;2024-03-06T01:05:22;55.70;;;30.40;;
70576;SDS011;58138;43.138;24.702;2024-03-06T01:10:23;57.15;;;30.58;;
70576;SDS011;58138;43.138;24.702;2024-03-06T01:12:49;61.97;;;31.50;;
70576;SDS011;58138;43.138;24.702;2024-03-06T01:15:14;60.25;;;31.92;;
70576;SDS011;58138;43.138;24.702;2024-03-06T01:17:40;67.63;;;33.65;;
70576;SDS011;58138;43.138;24.702;2024-03-06T01:20:05;68.43;;;32.88;;
70576;SDS011;58138;43.138;24.702;2024-03-06T01:22:32;64.93;;;33.85;;
70576;SDS011;58138;43.138;24.702;2024-03-06T01:24:58;64.10;;;32.85;;
70576;SDS011;58138;43.138;24.702;2024-03-06T01:27:25;64.35;;;32.60;;
70576;SDS011;58138;43.138;24.702;2024-03-06T01:29:51;66.10;;;32.85;;
70576;SDS011;58138;43.138;24.702;2024-03-06T01:32:16;61.38;;;32.03;;
70576;SDS011;58138;43.138;24.702;2024-03-06T01:34:42;61.40;;;32.15;;
70576;SDS011;58138;43.138;24.702;2024-03-06T01:37:08;54.92;;;29.52;;
70576;SDS011;58138;43.138;24.702;2024-03-06T01:39:34;53.28;;;29.63;;
70576;SDS011;58138;43.138;24.702;2024-03-06T01:42:00;53.55;;;29.40;;
70576;SDS011;58138;43.138;24.702;2024-03-06T01:44:26;53.20;;;28.33;;
70576;SDS011;58138;43.138;24.702;2024-03-06T01:46:52;56.25;;;29.30;;
70576;SDS011;58138;43.138;24.702;2024-03-06T01:49:17;55.45;;;30.13;;
70576;SDS011;58138;43.138;24.702;2024-03-06T01:51:45;51.42;;;29.10;;
70576;SDS011;58138;43.138;24.702;2024-03-06T01:54:14;54.60;;;29.63;;
70576;SDS011;58138;43.138;24.702;2024-03-06T01:56:42;52.95;;;28.33;;
70576;SDS011;58138;43.138;24.702;2024-03-06T01:59:10;53.70;;;28.30;;
70576;SDS011;58138;43.138;24.702;2024-03-06T02:01:40;51.30;;;28.63;;
70576;SDS011;58138;43.138;24.702;2024-03-06T02:04:09;47.47;;;27.75;;
70576;SDS011;58138;43.138;24.702;2024-03-06T02:06:40;55.55;;;29.67;;
70576;SDS011;58138;43.138;24.702;2024-03-06T02:09:06;48.40;;;27.88;;
70576;SDS011;58138;43.138;24.702;2024-03-06T02:11:32;46.85;;;27.50;;
70576;SDS011;58138;43.138;24.702;2024-03-06T02:13:58;45.53;;;26.08;;
70576;SDS011;58138;43.138;24.702;2024-03-06T02:16:24;45.35;;;26.25;;
70576;SDS011;58138;43.138;24.702;2024-03-06T02:18:53;44.05;;;25.35;;
70576;SDS011;58138;43.138;24.702;2024-03-06T02:21:25;42.33;;;25.48;;
70576;SDS011;58138;43.138;24.702;2024-03-06T02:23:50;42.40;;;24.55;;
70576;SDS011;58138;43.138;24.702;2024-03-06T02:26:20;38.13;;;23.30;;
70576;SDS011;58138;43.138;24.702;2024-03-06T02:28:50;42.65;;;26.35;;
70576;SDS011;58138;43.138;24.702;2024-03-06T02:31:16;41.83;;;25.70;;
70576;SDS011;58138;43.138;24.702;2024-03-06T02:33:46;43.42;;;25.33;;
70576;SDS011;58138;43.138;24.702;2024-03-06T02:36:16;39.88;;;23.98;;
70576;SDS011;58138;43.138;24.702;2024-03-06T02:38:42;38.90;;;24.23;;
70576;SDS011;58138;43.138;24.702;2024-03-06T02:41:08;37.88;;;23.88;;
70576;SDS011;58138;43.138;24.702;2024-03-06T02:43:34;40.05;;;24.63;;
70576;SDS011;58138;43.138;24.702;2024-03-06T02:45:59;42.35;;;25.27;;
70576;SDS011;58138;43.138;24.702;2024-03-06T02:48:25;42.42;;;24.70;;
70576;SDS011;58138;43.138;24.702;2024-03-06T02:50:51;42.90;;;24.73;;
70576;SDS011;58138;43.138;24.702;2024-03-06T02:53:17;42.28;;;24.75;;
70576;SDS011;58138;43.138;24.702;2024-03-06T02:55:42;41.90;;;24.50;;
70576;SDS011;58138;43.138;24.702;2024-03-06T02:58:08;40.50;;;24.23;;
70576;SDS011;58138;43.138;24.702;2024-03-06T03:00:33;41.10;;;24.85;;
70576;SDS011;58138;43.138;24.702;2024-03-06T03:02:59;39.20;;;24.30;;
70576;SDS011;58138;43.138;24.702;2024-03-06T03:05:24;39.25;;;23.75;;
70576;SDS011;58138;43.138;24.702;2024-03-06T03:07:50;39.67;;;24.58;;
70576;SDS011;58138;43.138;24.702;2024-03-06T03:10:16;37.42;;;23.67;;
70576;SDS011;58138;43.138;24.702;2024-03-06T03:12:42;38.85;;;24.17;;
70576;SDS011;58138;43.138;24.702;2024-03-06T03:15:08;37.92;;;23.55;;
70576;SDS011;58138;43.138;24.702;2024-03-06T03:17:34;38.80;;;24.17;;
70576;SDS011;58138;43.138;24.702;2024-03-06T03:19:59;40.25;;;24.70;;
70576;SDS011;58138;43.138;24.702;2024-03-06T03:22:25;42.55;;;26.08;;
70576;SDS011;58138;43.138;24.702;2024-03-06T03:24:51;48.03;;;26.73;;
70576;SDS011;58138;43.138;24.702;2024-03-06T03:27:16;45.22;;;26.83;;
70576;SDS011;58138;43.138;24.702;2024-03-06T03:29:43;45.45;;;26.90;;
70576;SDS011;58138;43.138;24.702;2024-03-06T03:32:08;48.25;;;27.45;;
70576;SDS011;58138;43.138;24.702;2024-03-06T03:34:34;50.53;;;27.35;;
70576;SDS011;58138;43.138;24.702;2024-03-06T03:37:00;50.35;;;27.90;;
70576;SDS011;58138;43.138;24.702;2024-03-06T03:39:26;55.13;;;29.88;;
70576;SDS011;58138;43.138;24.702;2024-03-06T03:41:52;55.92;;;30.75;;
70576;SDS011;58138;43.138;24.702;2024-03-06T03:44:18;59.97;;;30.90;;
70576;SDS011;58138;43.138;24.702;2024-03-06T03:46:44;58.72;;;30.70;;
70576;SDS011;58138;43.138;24.702;2024-03-06T03:49:09;63.83;;;32.65;;
70576;SDS011;58138;43.138;24.702;2024-03-06T03:51:35;58.15;;;31.83;;
70576;SDS011;58138;43.138;24.702;2024-03-06T03:54:01;59.63;;;31.50;;
70576;SDS011;58138;43.138;24.702;2024-03-06T03:56:27;72.15;;;33.40;;
70576;SDS011;58138;43.138;24.702;2024-03-06T03:58:53;61.50;;;32.40;;
70576;SDS011;58138;43.138;24.702;2024-03-06T04:01:18;66.38;;;32.33;;
70576;SDS011;58138;43.138;24.702;2024-03-06T04:03:44;58.88;;;32.58;;
70576;SDS011;58138;43.138;24.702;2024-03-06T04:06:12;64.75;;;34.65;;
70576;SDS011;58138;43.138;24.702;2024-03-06T04:08:38;70.85;;;32.53;;
70576;SDS011;58138;43.138;24.702;2024-03-06T04:11:04;63.17;;;32.22;;
70576;SDS011;58138;43.138;24.702;2024-03-06T04:13:29;58.42;;;32.22;;
70576;SDS011;58138;43.138;24.702;2024-03-06T04:15:55;57.72;;;30.42;;
70576;SDS011;58138;43.138;24.702;2024-03-06T04:18:20;66.65;;;37.60;;
70576;SDS011;58138;43.138;24.702;2024-03-06T04:20:46;77.05;;;44.20;;
70576;SDS011;58138;43.138;24.702;2024-03-06T04:23:11;67.43;;;33.78;;
70576;SDS011;58138;43.138;24.702;2024-03-06T04:25:37;55.55;;;31.17;;
70576;SDS011;58138;43.138;24.702;2024-03-06T04:28:04;60.20;;;31.67;;
70576;SDS011;58138;43.138;24.702;2024-03-06T04:30:32;58.45;;;31.48;;
70576;SDS011;58138;43.138;24.702;2024-03-06T04:32:58;56.22;;;31.27;;
70576;SDS011;58138;43.138;24.702;2024-03-06T04:35:24;62.15;;;34.55;;
70576;SDS011;58138;43.138;24.702;2024-03-06T04:37:50;83.13;;;49.13;;
70576;SDS011;58138;43.138;24.702;2024-03-06T04:40:15;61.45;;;33.38;;
70576;SDS011;58138;43.138;24.702;2024-03-06T04:42:45;58.38;;;33.67;;
70576;SDS011;58138;43.138;24.702;2024-03-06T04:45:13;61.17;;;34.90;;
70576;SDS011;58138;43.138;24.702;2024-03-06T04:47:40;70.05;;;34.42;;
70576;SDS011;58138;43.138;24.702;2024-03-06T04:50:12;58.10;;;36.03;;
70576;SDS011;58138;43.138;24.702;2024-03-06T04:52:39;66.15;;;35.58;;
70576;SDS011;58138;43.138;24.702;2024-03-06T04:55:06;61.80;;;33.08;;
70576;SDS011;58138;43.138;24.702;2024-03-06T04:57:32;57.83;;;32.47;;
70576;SDS011;58138;43.138;24.702;2024-03-06T04:59:58;57.35;;;31.70;;
70576;SDS011;58138;43.138;24.702;2024-03-06T05:02:23;62.08;;;34.38;;
70576;SDS011;58138;43.138;24.702;2024-03-06T05:04:50;78.00;;;43.38;;
70576;SDS011;58138;43.138;24.702;2024-03-06T05:07:16;63.08;;;35.75;;
70576;SDS011;58138;43.138;24.702;2024-03-06T05:09:41;145.93;;;89.35;;
70576;SDS011;58138;43.138;24.702;2024-03-06T05:12:07;67.38;;;38.75;;
70576;SDS011;58138;43.138;24.702;2024-03-06T05:14:33;59.58;;;33.08;;
70576;SDS011;58138;43.138;24.702;2024-03-06T05:16:59;64.38;;;33.38;;
70576;SDS011;58138;43.138;24.702;2024-03-06T05:19:24;68.63;;;34.83;;
70576;SDS011;58138;43.138;24.702;2024-03-06T05:21:57;67.05;;;34.45;;
70576;SDS011;58138;43.138;24.702;2024-03-06T05:24:26;61.50;;;33.25;;
70576;SDS011;58138;43.138;24.702;2024-03-06T05:26:51;60.47;;;33.05;;
70576;SDS011;58138;43.138;24.702;2024-03-06T05:29:17;57.40;;;33.10;;
70576;SDS011;58138;43.138;24.702;2024-03-06T05:31:42;63.75;;;34.72;;
70576;SDS011;58138;43.138;24.702;2024-03-06T05:34:08;61.00;;;33.08;;
70576;SDS011;58138;43.138;24.702;2024-03-06T05:36:33;64.38;;;34.70;;
70576;SDS011;58138;43.138;24.702;2024-03-06T05:38:59;59.22;;;33.53;;
70576;SDS011;58138;43.138;24.702;2024-03-06T05:41:24;60.80;;;33.40;;
70576;SDS011;58138;43.138;24.702;2024-03-06T05:43:50;66.25;;;34.75;;
70576;SDS011;58138;43.138;24.702;2024-03-06T05:46:15;64.25;;;35.92;;
70576;SDS011;58138;43.138;24.702;2024-03-06T05:48:41;65.82;;;36.72;;
70576;SDS011;58138;43.138;24.702;2024-03-06T05:51:07;61.75;;;34.97;;
70576;SDS011;58138;43.138;24.702;2024-03-06T05:53:38;117.68;;;70.60;;
70576;SDS011;58138;43.138;24.702;2024-03-06T05:56:06;69.20;;;40.13;;
70576;SDS011;58138;43.138;24.702;2024-03-06T05:58:32;66.15;;;38.22;;
70576;SDS011;58138;43.138;24.702;2024-03-06T06:00:57;72.18;;;38.28;;
70576;SDS011;58138;43.138;24.702;2024-03-06T06:03:23;65.65;;;36.38;;
70576;SDS011;58138;43.138;24.702;2024-03-06T06:05:48;62.55;;;35.30;;
70576;SDS011;58138;43.138;24.702;2024-03-06T06:08:14;56.67;;;32.30;;
70576;SDS011;58138;43.138;24.702;2024-03-06T06:10:39;55.90;;;33.22;;
70576;SDS011;58138;43.138;24.702;2024-03-06T06:13:05;70.97;;;40.75;;
70576;SDS011;58138;43.138;24.702;2024-03-06T06:15:31;62.13;;;35.80;;
70576;SDS011;58138;43.138;24.702;2024-03-06T06:17:56;74.30;;;45.95;;
70576;SDS011;58138;43.138;24.702;2024-03-06T06:20:22;72.95;;;44.53;;
70576;SDS011;58138;43.138;24.702;2024-03-06T06:22:47;59.53;;;34.65;;
70576;SDS011;58138;43.138;24.702;2024-03-06T06:25:13;62.25;;;37.55;;
70576;SDS011;58138;43.138;24.702;2024-03-06T06:27:40;62.67;;;36.97;;
70576;SDS011;58138;43.138;24.702;2024-03-06T06:30:06;62.72;;;35.60;;
70576;SDS011;58138;43.138;24.702;2024-03-06T06:32:36;64.00;;;35.67;;
70576;SDS011;58138;43.138;24.702;2024-03-06T06:35:05;61.53;;;34.47;;
70576;SDS011;58138;43.138;24.702;2024-03-06T06:37:31;97.60;;;63.95;;
70576;SDS011;58138;43.138;24.702;2024-03-06T06:39:57;54.78;;;31.83;;
70576;SDS011;58138;43.138;24.702;2024-03-06T06:42:22;53.55;;;32.20;;
70576;SDS011;58138;43.138;24.702;2024-03-06T06:44:49;52.30;;;31.13;;
70576;SDS011;58138;43.138;24.702;2024-03-06T06:47:14;57.22;;;33.40;;
70576;SDS011;58138;43.138;24.702;2024-03-06T06:49:40;57.05;;;33.42;;
70576;SDS011;58138;43.138;24.702;2024-03-06T06:52:05;57.08;;;32.90;;
70576;SDS011;58138;43.138;24.702;2024-03-06T06:54:31;60.67;;;33.15;;
70576;SDS011;58138;43.138;24.702;2024-03-06T06:56:56;55.20;;;32.95;;
70576;SDS011;58138;43.138;24.702;2024-03-06T06:59:22;61.13;;;36.58;;
70576;SDS011;58138;43.138;24.702;2024-03-06T07:01:48;59.13;;;35.28;;
70576;SDS011;58138;43.138;24.702;2024-03-06T07:04:13;64.82;;;40.33;;
70576;SDS011;58138;43.138;24.702;2024-03-06T07:06:41;61.70;;;37.38;;
70576;SDS011;58138;43.138;24.702;2024-03-06T07:09:07;69.22;;;40.67;;
70576;SDS011;58138;43.138;24.702;2024-03-06T07:11:34;64.22;;;36.38;;
70576;SDS011;58138;43.138;24.702;2024-03-06T07:14:00;52.92;;;29.63;;
70576;SDS011;58138;43.138;24.702;2024-03-06T07:16:25;49.17;;;29.50;;
70576;SDS011;58138;43.138;24.702;2024-03-06T07:18:51;58.53;;;34.13;;
70576;SDS011;58138;43.138;24.702;2024-03-06T07:21:16;52.75;;;30.58;;
70576;SDS011;58138;43.138;24.702;2024-03-06T07:23:43;46.97;;;27.13;;
70576;SDS011;58138;43.138;24.702;2024-03-06T07:26:09;45.50;;;26.23;;
70576;SDS011;58138;43.138;24.702;2024-03-06T07:28:35;41.80;;;26.85;;
70576;SDS011;58138;43.138;24.702;2024-03-06T07:31:02;55.70;;;34.20;;
70576;SDS011;58138;43.138;24.702;2024-03-06T07:33:28;51.42;;;31.95;;
70576;SDS011;58138;43.138;24.702;2024-03-06T07:35:53;44.70;;;28.52;;
70576;SDS011;58138;43.138;24.702;2024-03-06T07:38:19;48.95;;;28.80;;
70576;SDS011;58138;43.138;24.702;2024-03-06T07:40:45;41.30;;;26.80;;
70576;SDS011;58138;43.138;24.702;2024-03-06T07:43:11;47.70;;;28.52;;
70576;SDS011;58138;43.138;24.702;2024-03-06T07:45:37;45.70;;;26.83;;
70576;SDS011;58138;43.138;24.702;2024-03-06T07:48:02;44.40;;;27.63;;
70576;SDS011;58138;43.138;24.702;2024-03-06T07:50:28;45.95;;;28.27;;
70576;SDS011;58138;43.138;24.702;2024-03-06T07:52:54;53.05;;;32.85;;
70576;SDS011;58138;43.138;24.702;2024-03-06T07:55:20;72.50;;;49.47;;
70576;SDS011;58138;43.138;24.702;2024-03-06T07:57:47;54.97;;;33.45;;
70576;SDS011;58138;43.138;24.702;2024-03-06T08:00:13;47.30;;;28.77;;
70576;SDS011;58138;43.138;24.702;2024-03-06T08:02:44;64.03;;;41.80;;
70576;SDS011;58138;43.138;24.702;2024-03-06T08:05:15;43.90;;;29.58;;
70576;SDS011;58138;43.138;24.702;2024-03-06T08:07:40;44.88;;;27.90;;
70576;SDS011;58138;43.138;24.702;2024-03-06T08:10:13;64.55;;;40.65;;
70576;SDS011;58138;43.138;24.702;2024-03-06T08:12:43;53.45;;;36.00;;
70576;SDS011;58138;43.138;24.702;2024-03-06T08:15:12;43.25;;;28.00;;
70576;SDS011;58138;43.138;24.702;2024-03-06T08:17:38;41.05;;;25.58;;
70576;SDS011;58138;43.138;24.702;2024-03-06T08:20:07;39.30;;;25.10;;
70576;SDS011;58138;43.138;24.702;2024-03-06T08:22:40;39.13;;;24.38;;
70576;SDS011;58138;43.138;24.702;2024-03-06T08:25:07;41.22;;;24.25;;
70576;SDS011;58138;43.138;24.702;2024-03-06T08:27:34;38.60;;;24.38;;
70576;SDS011;58138;43.138;24.702;2024-03-06T08:30:01;32.88;;;22.27;;
70576;SDS011;58138;43.138;24.702;2024-03-06T08:32:29;46.97;;;30.65;;
70576;SDS011;58138;43.138;24.702;2024-03-06T08:34:55;40.15;;;24.13;;
70576;SDS011;58138;43.138;24.702;2024-03-06T08:37:21;79.45;;;50.97;;
70576;SDS011;58138;43.138;24.702;2024-03-06T08:39:46;45.40;;;28.10;;
70576;SDS011;58138;43.138;24.702;2024-03-06T08:42:13;43.45;;;26.63;;
70576;SDS011;58138;43.138;24.702;2024-03-06T08:44:43;40.08;;;25.38;;
70576;SDS011;58138;43.138;24.702;2024-03-06T08:47:09;43.67;;;25.58;;
70576;SDS011;58138;43.138;24.702;2024-03-06T08:49:34;41.72;;;23.92;;
70576;SDS011;58138;43.138;24.702;2024-03-06T08:52:00;37.78;;;22.27;;
70576;SDS011;58138;43.138;24.702;2024-03-06T08:54:25;36.50;;;23.33;;
70576;SDS011;58138;43.138;24.702;2024-03-06T08:56:51;39.30;;;23.80;;
70576;SDS011;58138;43.138;24.702;2024-03-06T08:59:18;35.83;;;22.70;;
70576;SDS011;58138;43.138;24.702;2024-03-06T09:01:44;39.55;;;24.08;;
70576;SDS011;58138;43.138;24.702;2024-03-06T09:04:09;52.35;;;34.78;;
70576;SDS011;58138;43.138;24.702;2024-03-06T09:06:35;37.00;;;24.27;;
70576;SDS011;58138;43.138;24.702;2024-03-06T09:09:00;37.80;;;23.27;;
70576;SDS011;58138;43.138;24.702;2024-03-06T09:11:26;42.90;;;25.35;;
70576;SDS011;58138;43.138;24.702;2024-03-06T09:13:51;33.25;;;21.45;;
70576;SDS011;58138;43.138;24.702;2024-03-06T09:16:17;36.20;;;21.20;;
70576;SDS011;58138;43.138;24.702;2024-03-06T09:18:43;36.08;;;22.10;;
70576;SDS011;58138;43.138;24.702;2024-03-06T09:21:08;37.60;;;23.98;;
70576;SDS011;58138;43.138;24.702;2024-03-06T09:23:34;43.67;;;26.80;;
70576;SDS011;58138;43.138;24.702;2024-03-06T09:25:59;46.72;;;26.80;;
70576;SDS011;58138;43.138;24.702;2024-03-06T09:28:25;43.22;;;28.73;;
70576;SDS011;58138;43.138;24.702;2024-03-06T09:30:50;48.28;;;30.88;;
70576;SDS011;58138;43.138;24.702;2024-03-06T09:33:16;47.08;;;28.58;;
70576;SDS011;58138;43.138;24.702;2024-03-06T09:35:41;46.05;;;27.52;;
70576;SDS011;58138;43.138;24.702;2024-03-06T09:38:10;48.15;;;28.15;;
70576;SDS011;58138;43.138;24.702;2024-03-06T09:40:38;48.50;;;29.58;;
70576;SDS011;58138;43.138;24.702;2024-03-06T09:43:05;47.53;;;28.42;;
70576;SDS011;58138;43.138;24.702;2024-03-06T09:45:32;47.08;;;29.38;;
70576;SDS011;58138;43.138;24.702;2024-03-06T09:47:57;44.92;;;28.85;;
70576;SDS011;58138;43.138;24.702;2024-03-06T09:50:23;43.60;;;28.92;;
70576;SDS011;58138;43.138;24.702;2024-03-06T09:52:51;48.28;;;28.48;;
70576;SDS011;58138;43.138;24.702;2024-03-06T09:55:17;45.83;;;26.88;;
70576;SDS011;58138;43.138;24.702;2024-03-06T09:57:43;49.92;;;28.88;;
70576;SDS011;58138;43.138;24.702;2024-03-06T10:00:09;51.05;;;28.50;;
70576;SDS011;58138;43.138;24.702;2024-03-06T10:05:28;43.80;;;27.52;;
70576;SDS011;58138;43.138;24.702;2024-03-06T10:07:55;49.13;;;29.75;;
70576;SDS011;58138;43.138;24.702;2024-03-06T10:10:21;44.92;;;27.33;;
70576;SDS011;58138;43.138;24.702;2024-03-06T10:12:50;42.30;;;27.40;;
70576;SDS011;58138;43.138;24.702;2024-03-06T10:15:16;44.35;;;27.92;;
70576;SDS011;58138;43.138;24.702;2024-03-06T10:17:41;51.92;;;27.38;;
70576;SDS011;58138;43.138;24.702;2024-03-06T10:20:20;50.03;;;29.00;;
70576;SDS011;58138;43.138;24.702;2024-03-06T10:22:49;43.05;;;28.83;;
70576;SDS011;58138;43.138;24.702;2024-03-06T10:25:19;53.17;;;30.70;;
70576;SDS011;58138;43.138;24.702;2024-03-06T10:27:46;58.90;;;34.85;;
70576;SDS011;58138;43.138;24.702;2024-03-06T10:30:27;46.97;;;29.08;;
70576;SDS011;58138;43.138;24.702;2024-03-06T10:32:53;45.97;;;27.10;;
70576;SDS011;58138;43.138;24.702;2024-03-06T10:35:18;47.45;;;28.17;;
70576;SDS011;58138;43.138;24.702;2024-03-06T10:37:45;43.90;;;26.17;;
70576;SDS011;58138;43.138;24.702;2024-03-06T10:40:12;44.00;;;26.30;;
70576;SDS011;58138;43.138;24.702;2024-03-06T10:42:40;44.90;;;27.30;;
70576;SDS011;58138;43.138;24.702;2024-03-06T10:45:07;41.00;;;26.05;;
70576;SDS011;58138;43.138;24.702;2024-03-06T10:47:33;38.58;;;26.33;;
70576;SDS011;58138;43.138;24.702;2024-03-06T10:50:02;41.03;;;25.92;;
70576;SDS011;58138;43.138;24.702;2024-03-06T10:52:29;36.53;;;24.73;;
70576;SDS011;58138;43.138;24.702;2024-03-06T10:54:58;41.28;;;25.80;;
70576;SDS011;58138;43.138;24.702;2024-03-06T10:57:24;45.78;;;25.23;;
70576;SDS011;58138;43.138;24.702;2024-03-06T10:59:50;43.47;;;25.92;;
70576;SDS011;58138;43.138;24.702;2024-03-06T11:02:17;39.95;;;25.73;;
70576;SDS011;58138;43.138;24.702;2024-03-06T11:04:43;38.28;;;25.35;;
70576;SDS011;58138;43.138;24.702;2024-03-06T11:07:09;36.92;;;25.67;;
70576;SDS011;58138;43.138;24.702;2024-03-06T11:09:36;40.08;;;25.45;;
70576;SDS011;58138;43.138;24.702;2024-03-06T11:12:03;43.85;;;26.90;;
70576;SDS011;58138;43.138;24.702;2024-03-06T11:14:32;42.78;;;26.30;;
70576;SDS011;58138;43.138;24.702;2024-03-06T11:21:56;53.42;;;35.00;;
70576;SDS011;58138;43.138;24.702;2024-03-06T11:24:23;48.33;;;29.90;;
70576;SDS011;58138;43.138;24.702;2024-03-06T11:26:50;48.70;;;29.23;;
70576;SDS011;58138;43.138;24.702;2024-03-06T11:29:27;43.88;;;28.45;;
70576;SDS011;58138;43.138;24.702;2024-03-06T11:32:06;41.13;;;27.17;;
70576;SDS011;58138;43.138;24.702;2024-03-06T11:34:33;43.72;;;28.33;;
70576;SDS011;58138;43.138;24.702;2024-03-06T11:37:02;46.90;;;28.50;;
70576;SDS011;58138;43.138;24.702;2024-03-06T11:39:32;43.83;;;26.05;;
70576;SDS011;58138;43.138;24.702;2024-03-06T11:41:59;41.05;;;25.67;;
70576;SDS011;58138;43.138;24.702;2024-03-06T11:44:26;38.15;;;25.67;;
70576;SDS011;58138;43.138;24.702;2024-03-06T11:47:00;38.35;;;25.20;;
70576;SDS011;58138;43.138;24.702;2024-03-06T11:49:30;38.38;;;25.05;;
70576;SDS011;58138;43.138;24.702;2024-03-06T11:52:03;40.58;;;26.40;;
70576;SDS011;58138;43.138;24.702;2024-03-06T11:54:30;39.65;;;25.35;;
70576;SDS011;58138;43.138;24.702;2024-03-06T11:56:57;32.28;;;21.95;;
70576;SDS011;58138;43.138;24.702;2024-03-06T12:01:50;35.80;;;22.33;;
70576;SDS011;58138;43.138;24.702;2024-03-06T12:04:18;32.10;;;22.17;;
70576;SDS011;58138;43.138;24.702;2024-03-06T12:06:44;31.65;;;21.10;;
70576;SDS011;58138;43.138;24.702;2024-03-06T12:09:09;30.73;;;21.88;;
70576;SDS011;58138;43.138;24.702;2024-03-06T12:11:36;34.90;;;21.80;;
70576;SDS011;58138;43.138;24.702;2024-03-06T12:14:02;31.55;;;21.50;;
70576;SDS011;58138;43.138;24.702;2024-03-06T12:16:28;37.08;;;21.38;;
70576;SDS011;58138;43.138;24.702;2024-03-06T12:18:57;33.80;;;20.65;;
70576;SDS011;58138;43.138;24.702;2024-03-06T12:21:33;31.20;;;20.15;;
70576;SDS011;58138;43.138;24.702;2024-03-06T12:24:06;31.35;;;19.70;;
70576;SDS011;58138;43.138;24.702;2024-03-06T12:26:34;29.67;;;19.27;;
70576;SDS011;58138;43.138;24.702;2024-03-06T12:29:05;32.40;;;20.52;;
70576;SDS011;58138;43.138;24.702;2024-03-06T12:31:31;29.23;;;20.95;;
70576;SDS011;58138;43.138;24.702;2024-03-06T12:33:57;33.10;;;19.83;;
70576;SDS011;58138;43.138;24.702;2024-03-06T12:36:25;29.38;;;19.92;;
70576;SDS011;58138;43.138;24.702;2024-03-06T12:39:00;29.40;;;19.92;;
70576;SDS011;58138;43.138;24.702;2024-03-06T12:41:26;29.98;;;19.52;;
70576;SDS011;58138;43.138;24.702;2024-03-06T12:43:53;30.60;;;20.00;;
70576;SDS011;58138;43.138;24.702;2024-03-06T12:46:18;28.00;;;19.30;;
70576;SDS011;58138;43.138;24.702;2024-03-06T12:48:44;26.63;;;19.90;;
70576;SDS011;58138;43.138;24.702;2024-03-06T12:51:10;28.05;;;19.73;;
70576;SDS011;58138;43.138;24.702;2024-03-06T12:53:36;33.47;;;19.80;;
70576;SDS011;58138;43.138;24.702;2024-03-06T12:56:01;25.70;;;18.73;;
70576;SDS011;58138;43.138;24.702;2024-03-06T12:58:27;29.63;;;20.25;;
70576;SDS011;58138;43.138;24.702;2024-03-06T13:00:53;29.95;;;19.80;;
70576;SDS011;58138;43.138;24.702;2024-03-06T13:03:19;30.63;;;20.08;;
70576;SDS011;58138;43.138;24.702;2024-03-06T13:05:45;39.00;;;23.48;;
70576;SDS011;58138;43.138;24.702;2024-03-06T13:08:11;37.00;;;25.42;;
70576;SDS011;58138;43.138;24.702;2024-03-06T13:10:40;33.78;;;23.75;;
70576;SDS011;58138;43.138;24.702;2024-03-06T13:13:06;28.70;;;21.15;;
70576;SDS011;58138;43.138;24.702;2024-03-06T13:15:32;27.70;;;20.80;;
70576;SDS011;58138;43.138;24.702;2024-03-06T13:18:02;29.38;;;20.27;;
70576;SDS011;58138;43.138;24.702;2024-03-06T13:20:31;27.83;;;19.92;;
70576;SDS011;58138;43.138;24.702;2024-03-06T13:22:56;32.72;;;20.60;;
70576;SDS011;58138;43.138;24.702;2024-03-06T13:25:22;30.77;;;20.40;;
70576;SDS011;58138;43.138;24.702;2024-03-06T13:27:48;33.85;;;21.40;;
70576;SDS011;58138;43.138;24.702;2024-03-06T13:30:14;37.47;;;21.20;;
70576;SDS011;58138;43.138;24.702;2024-03-06T13:32:40;38.03;;;23.67;;
70576;SDS011;58138;43.138;24.702;2024-03-06T13:35:07;32.03;;;21.42;;
70576;SDS011;58138;43.138;24.702;2024-03-06T13:37:38;40.22;;;22.10;;
70576;SDS011;58138;43.138;24.702;2024-03-06T13:40:05;34.95;;;20.92;;
70576;SDS011;58138;43.138;24.702;2024-03-06T13:42:32;33.78;;;21.10;;
70576;SDS011;58138;43.138;24.702;2024-03-06T13:44:58;36.20;;;21.25;;
70576;SDS011;58138;43.138;24.702;2024-03-06T13:47:23;38.30;;;20.83;;
70576;SDS011;58138;43.138;24.702;2024-03-06T13:49:49;35.85;;;21.08;;
70576;SDS011;58138;43.138;24.702;2024-03-06T13:52:15;39.97;;;21.70;;
70576;SDS011;58138;43.138;24.702;2024-03-06T13:54:44;39.38;;;23.27;;
70576;SDS011;58138;43.138;24.702;2024-03-06T13:57:10;107.72;;;79.47;;
70576;SDS011;58138;43.138;24.702;2024-03-06T13:59:36;32.08;;;22.17;;
70576;SDS011;58138;43.138;24.702;2024-03-06T14:02:02;38.90;;;22.00;;
70576;SDS011;58138;43.138;24.702;2024-03-06T14:04:28;29.75;;;20.38;;
70576;SDS011;58138;43.138;24.702;2024-03-06T14:06:55;38.78;;;21.58;;
70576;SDS011;58138;43.138;24.702;2024-03-06T14:09:22;34.30;;;21.65;;
70576;SDS011;58138;43.138;24.702;2024-03-06T14:11:52;32.47;;;21.48;;
70576;SDS011;58138;43.138;24.702;2024-03-06T14:14:18;42.30;;;26.80;;
70576;SDS011;58138;43.138;24.702;2024-03-06T14:16:44;41.67;;;22.98;;
70576;SDS011;58138;43.138;24.702;2024-03-06T14:19:10;38.20;;;22.90;;